createdAt,value
2019-01-10T00:01:16.166Z,0.88
2019-01-10T00:03:45.724Z,0.90
2019-01-10T00:06:14.964Z,0.92
2019-01-10T00:08:44.184Z,0.84
2019-01-10T00:11:13.390Z,0.87
2019-01-10T00:13:42.963Z,0.78
2019-01-10T00:16:12.145Z,0.78
2019-01-10T00:18:41.689Z,0.82
2019-01-10T00:21:10.917Z,0.90
2019-01-10T00:23:40.457Z,0.85
2019-01-10T00:26:10.064Z,0.92
2019-01-10T00:28:39.551Z,0.87
2019-01-10T00:31:08.718Z,0.92
2019-01-10T00:33:38.670Z,0.89
2019-01-10T00:36:08.119Z,0.89
2019-01-10T00:38:37.418Z,0.91
2019-01-10T00:41:06.652Z,0.90
2019-01-10T00:43:36.164Z,0.90
2019-01-10T00:46:05.741Z,0.91
2019-01-10T00:48:34.891Z,0.96
2019-01-10T00:51:04.108Z,0.93
2019-01-10T00:53:33.275Z,0.92
2019-01-10T00:56:03.282Z,0.82
2019-01-10T00:58:32.720Z,0.86
2019-01-10T01:01:01.874Z,0.86
2019-01-10T01:03:31.452Z,0.85
2019-01-10T01:06:01.190Z,0.81
2019-01-10T01:08:30.353Z,0.79
2019-01-10T01:10:59.522Z,0.66
2019-01-10T01:13:28.798Z,0.53
2019-01-10T01:15:57.951Z,0.53
2019-01-10T01:18:27.091Z,0.44
2019-01-10T01:20:56.553Z,0.46
2019-01-10T01:23:25.809Z,0.39
2019-01-10T01:25:55.347Z,0.37
2019-01-10T01:28:24.679Z,0.25
2019-01-10T01:30:53.854Z,0.29
2019-01-10T01:33:23.354Z,0.34
2019-01-10T01:35:52.547Z,0.42
2019-01-10T01:38:21.707Z,0.43
2019-01-10T01:40:51.698Z,0.43
2019-01-10T01:43:21.136Z,0.35
2019-01-10T01:45:50.992Z,0.40
2019-01-10T01:48:20.936Z,0.35
2019-01-10T01:50:50.117Z,0.37
2019-01-10T01:53:19.412Z,0.43
2019-01-10T01:55:48.614Z,0.42
2019-01-10T01:58:18.643Z,0.41
2019-01-10T02:00:48.054Z,0.47
2019-01-10T02:03:17.187Z,0.48
2019-01-10T02:05:46.703Z,0.50
2019-01-10T02:08:15.897Z,0.49
2019-01-10T02:10:45.118Z,0.44
2019-01-10T02:13:16.908Z,0.50
2019-01-10T02:15:45.228Z,0.55
2019-01-10T02:18:14.431Z,0.51
2019-01-10T02:20:43.617Z,0.48
2019-01-10T02:23:12.757Z,0.50
2019-01-10T02:25:41.926Z,0.50
2019-01-10T02:28:11.463Z,0.49
2019-01-10T02:30:42.058Z,0.40
2019-01-10T02:33:11.679Z,0.41
2019-01-10T02:35:40.912Z,0.39
2019-01-10T02:38:10.093Z,0.33
2019-01-10T02:40:39.617Z,0.27
2019-01-10T02:43:09.199Z,0.30
2019-01-10T02:45:38.732Z,0.18
2019-01-10T02:48:07.902Z,0.15
2019-01-10T02:50:37.751Z,0.19
2019-01-10T02:53:07.041Z,0.29
2019-01-10T02:55:36.249Z,0.24
2019-01-10T02:58:05.750Z,0.27
2019-01-10T03:00:35.289Z,0.31
2019-01-10T03:03:04.485Z,0.29
2019-01-10T03:05:33.723Z,0.29
2019-01-10T03:08:02.910Z,0.24
2019-01-10T03:10:32.150Z,0.23
2019-01-10T03:13:02.464Z,0.17
2019-01-10T03:15:31.671Z,0.25
2019-01-10T03:18:01.484Z,0.32
2019-01-10T03:20:30.671Z,0.27
2019-01-10T03:22:59.840Z,0.18
2019-01-10T03:25:29.392Z,0.22
2019-01-10T03:27:58.926Z,0.25
2019-01-10T03:30:28.445Z,0.25
2019-01-10T03:32:57.787Z,0.27
2019-01-10T03:35:27.064Z,0.35
2019-01-10T03:37:56.190Z,0.37
2019-01-10T03:40:25.713Z,0.35
2019-01-10T03:42:55.202Z,0.35
2019-01-10T03:45:24.451Z,0.34
2019-01-10T03:47:53.582Z,0.36
2019-01-10T03:50:22.866Z,0.30
2019-01-10T03:52:52.059Z,0.37
2019-01-10T03:55:21.233Z,0.40
2019-01-10T03:57:50.848Z,0.35
2019-01-10T04:00:24.581Z,0.36
2019-01-10T04:02:53.736Z,0.44
2019-01-10T04:05:23.412Z,0.42
2019-01-10T04:07:52.598Z,0.42
2019-01-10T04:10:22.105Z,0.44
2019-01-10T04:12:51.549Z,0.42
2019-01-10T04:15:20.815Z,0.47
2019-01-10T04:17:50.981Z,0.45
2019-01-10T04:20:20.257Z,0.42
2019-01-10T04:22:49.448Z,0.47
2019-01-10T04:25:18.671Z,0.47
2019-01-10T04:27:47.814Z,0.41
2019-01-10T04:30:21.828Z,0.43
2019-01-10T04:32:50.982Z,0.47
2019-01-10T04:35:20.510Z,0.47
2019-01-10T04:37:50.044Z,0.49
2019-01-10T04:40:21.064Z,0.55
2019-01-10T04:42:50.482Z,0.61
2019-01-10T04:45:19.622Z,0.57
2019-01-10T04:47:49.117Z,0.44
2019-01-10T04:50:18.720Z,0.38
2019-01-10T04:52:48.355Z,0.31
2019-01-10T04:55:17.486Z,0.30
2019-01-10T04:57:47.230Z,0.23
2019-01-10T05:00:19.733Z,0.33
2019-01-10T05:02:48.886Z,0.38
2019-01-10T05:05:18.143Z,0.38
2019-01-10T05:07:47.289Z,0.34
2019-01-10T05:10:16.962Z,0.39
2019-01-10T05:12:46.213Z,0.48
2019-01-10T05:15:15.556Z,0.51
2019-01-10T05:17:45.057Z,0.53
2019-01-10T05:20:19.460Z,0.55
2019-01-10T05:22:48.878Z,0.53
2019-01-10T05:25:18.081Z,0.51
2019-01-10T05:27:47.609Z,0.48
2019-01-10T05:30:26.246Z,0.52
2019-01-10T05:32:55.765Z,0.55
2019-01-10T05:35:25.458Z,0.48
2019-01-10T05:37:54.676Z,0.50
2019-01-10T05:40:24.203Z,0.50
2019-01-10T05:42:54.157Z,0.38
2019-01-10T05:45:23.345Z,-0.01
2019-01-10T05:47:52.513Z,-0.16
2019-01-10T05:50:22.169Z,-0.08
2019-01-10T05:52:51.934Z,-0.02
2019-01-10T05:55:25.936Z,0.13
2019-01-10T05:57:55.288Z,0.25
2019-01-10T06:00:27.122Z,0.35
2019-01-10T06:02:56.943Z,0.46
2019-01-10T06:05:27.841Z,0.50
2019-01-10T06:07:57.001Z,0.44
2019-01-10T06:10:28.242Z,0.55
2019-01-10T06:12:58.569Z,0.58
2019-01-10T06:15:27.896Z,0.58
2019-01-10T06:17:57.141Z,0.51
2019-01-10T06:20:26.977Z,0.52
2019-01-10T06:22:56.992Z,0.37
2019-01-10T06:25:26.290Z,0.43
2019-01-10T06:27:55.774Z,0.49
2019-01-10T06:30:25.146Z,0.48
2019-01-10T06:32:54.821Z,0.41
2019-01-10T06:35:24.259Z,0.36
2019-01-10T06:37:53.577Z,0.51
2019-01-10T06:40:23.191Z,0.38
2019-01-10T06:42:54.033Z,0.25
2019-01-10T06:45:23.174Z,0.13
2019-01-10T06:47:52.924Z,0.19
2019-01-10T06:50:22.818Z,0.22
2019-01-10T06:52:52.905Z,0.38
2019-01-10T06:55:22.182Z,0.50
2019-01-10T06:57:51.470Z,0.58
2019-01-10T07:00:25.286Z,0.59
2019-01-10T07:02:55.318Z,0.44
2019-01-10T07:05:25.711Z,0.33
2019-01-10T07:07:56.638Z,0.31
2019-01-10T07:10:30.476Z,0.39
2019-01-10T07:12:59.949Z,0.40
2019-01-10T07:15:29.118Z,0.43
2019-01-10T07:17:58.665Z,0.34
2019-01-10T07:20:28.007Z,0.38
2019-01-10T07:22:57.510Z,0.42
2019-01-10T07:25:27.050Z,0.53
2019-01-10T07:27:58.033Z,0.47
2019-01-10T07:30:35.707Z,0.42
2019-01-10T07:32:59.645Z,0.50
2019-01-10T07:35:28.878Z,0.59
2019-01-10T07:37:58.692Z,0.65
2019-01-10T07:40:28.551Z,0.72
2019-01-10T07:42:58.091Z,0.80
2019-01-10T07:45:28.793Z,0.78
2019-01-10T07:47:59.236Z,0.68
2019-01-10T07:50:38.437Z,0.70
2019-01-10T07:53:09.164Z,0.73
2019-01-10T07:55:40.769Z,0.70
2019-01-10T07:58:10.120Z,0.72
2019-01-10T08:00:40.452Z,0.72
2019-01-10T08:03:09.628Z,0.63
2019-01-10T08:05:40.620Z,0.56
2019-01-10T08:08:10.564Z,0.51
2019-01-10T08:10:39.778Z,0.61
2019-01-10T08:13:09.449Z,0.67
2019-01-10T08:15:38.619Z,0.70
2019-01-10T08:18:08.019Z,0.71
2019-01-10T08:20:37.190Z,0.84
2019-01-10T08:23:06.303Z,0.75
2019-01-10T08:25:35.546Z,0.83
2019-01-10T08:28:04.806Z,0.94
2019-01-10T08:30:34.248Z,0.88
2019-01-10T08:33:03.789Z,0.85
2019-01-10T08:35:33.293Z,0.84
2019-01-10T08:38:03.338Z,0.91
2019-01-10T08:40:32.493Z,0.89
2019-01-10T08:43:02.321Z,0.95
2019-01-10T08:45:31.825Z,0.97
2019-01-10T08:48:01.129Z,0.96
2019-01-10T08:50:30.330Z,1.03
2019-01-10T08:52:59.834Z,1.09
2019-01-10T08:55:29.008Z,1.06
2019-01-10T08:57:58.218Z,1.10
2019-01-10T09:00:27.742Z,1.06
2019-01-10T09:02:57.132Z,1.05
2019-01-10T09:05:26.295Z,1.02
2019-01-10T09:07:55.431Z,1.03
2019-01-10T09:10:29.645Z,1.02
2019-01-10T09:12:59.158Z,1.06
2019-01-10T09:15:34.322Z,1.11
2019-01-10T09:17:59.576Z,1.13
2019-01-10T09:20:28.794Z,1.08
2019-01-10T09:22:57.958Z,0.82
2019-01-10T09:25:27.620Z,0.74
2019-01-10T09:27:58.091Z,0.74
2019-01-10T09:30:27.474Z,0.79
2019-01-10T09:32:57.161Z,0.99
2019-01-10T09:35:26.689Z,1.13
2019-01-10T09:37:55.854Z,1.17
2019-01-10T09:40:25.144Z,1.26
2019-01-10T09:42:54.453Z,1.35
2019-01-10T09:45:25.338Z,1.37
2019-01-10T09:47:54.898Z,1.43
2019-01-10T09:50:24.750Z,1.40
2019-01-10T09:52:54.479Z,1.38
2019-01-10T09:55:43.051Z,1.43
2019-01-10T09:58:12.501Z,1.58
2019-01-10T10:00:41.804Z,1.73
2019-01-10T10:03:10.970Z,1.78
2019-01-10T10:05:40.538Z,1.79
2019-01-10T10:08:10.014Z,1.87
2019-01-10T10:10:39.516Z,1.75
2019-01-10T10:13:08.672Z,1.89
2019-01-10T10:15:37.848Z,2.02
2019-01-10T10:18:07.038Z,2.21
2019-01-10T10:20:37.668Z,2.24
2019-01-10T10:23:07.265Z,2.28
2019-01-10T10:25:36.762Z,2.29
2019-01-10T10:28:06.120Z,2.41
2019-01-10T10:30:36.398Z,2.39
2019-01-10T10:33:06.318Z,2.33
2019-01-10T10:35:35.831Z,2.40
2019-01-10T10:38:05.057Z,2.53
2019-01-10T10:40:34.286Z,2.59
2019-01-10T10:43:05.710Z,2.47
2019-01-10T10:45:35.163Z,2.60
2019-01-10T10:48:04.383Z,2.70
2019-01-10T10:50:35.143Z,2.75
2019-01-10T10:53:06.337Z,2.77
2019-01-10T10:55:35.826Z,2.77
2019-01-10T10:58:05.189Z,2.71
2019-01-10T11:00:36.828Z,2.78
2019-01-10T11:03:05.990Z,2.82
2019-01-10T11:05:35.546Z,2.68
2019-01-10T11:08:04.817Z,2.83
2019-01-10T11:10:34.186Z,3.01
2019-01-10T11:13:03.372Z,3.04
2019-01-10T11:15:32.843Z,2.99
2019-01-10T11:18:02.201Z,3.14
2019-01-10T11:20:31.413Z,3.16
2019-01-10T11:23:10.158Z,3.10
2019-01-10T11:25:32.076Z,3.21
2019-01-10T11:28:01.289Z,3.22
2019-01-10T11:30:31.093Z,3.33
2019-01-10T11:33:00.672Z,3.43
2019-01-10T11:35:30.616Z,3.48
2019-01-10T11:38:00.120Z,3.42
2019-01-10T11:40:29.758Z,3.53
2019-01-10T11:42:59.053Z,3.68
2019-01-10T11:45:29.267Z,3.68
2019-01-10T11:48:00.197Z,3.46
2019-01-10T11:50:29.346Z,3.67
2019-01-10T11:53:00.612Z,3.50
2019-01-10T11:55:29.812Z,3.61
2019-01-10T11:57:59.023Z,3.57
2019-01-10T12:00:31.188Z,3.66
2019-01-10T12:03:02.224Z,3.47
2019-01-10T12:05:31.429Z,3.49
2019-01-10T12:08:00.956Z,3.44
2019-01-10T12:10:30.465Z,3.49
2019-01-10T12:12:59.662Z,3.42
2019-01-10T12:15:29.186Z,3.49
2019-01-10T12:17:58.420Z,3.50
2019-01-10T12:20:27.998Z,3.51
2019-01-10T12:22:57.599Z,3.49
2019-01-10T12:25:27.223Z,3.67
2019-01-10T12:27:56.795Z,3.74
2019-01-10T12:30:26.941Z,3.82
2019-01-10T12:32:56.168Z,3.75
2019-01-10T12:35:26.139Z,3.82
2019-01-10T12:37:55.509Z,3.90
2019-01-10T12:40:26.072Z,3.99
2019-01-10T12:42:55.439Z,4.06
2019-01-10T12:45:24.602Z,4.18
2019-01-10T12:47:54.076Z,4.20
2019-01-10T12:50:28.494Z,4.26
2019-01-10T12:52:57.649Z,4.33
2019-01-10T12:55:26.889Z,4.33
2019-01-10T12:57:56.128Z,4.32
2019-01-10T13:00:25.705Z,4.28
2019-01-10T13:02:55.908Z,4.13
2019-01-10T13:05:25.282Z,4.10
2019-01-10T13:08:03.145Z,4.09
2019-01-10T13:10:25.984Z,4.18
2019-01-10T13:12:55.322Z,4.10
2019-01-10T13:15:28.177Z,3.98
2019-01-10T13:17:57.643Z,3.82
2019-01-10T13:20:26.805Z,3.66
2019-01-10T13:22:56.276Z,3.65
2019-01-10T13:25:25.533Z,3.74
2019-01-10T13:27:57.253Z,3.78
2019-01-10T13:30:28.571Z,3.68
2019-01-10T13:32:58.497Z,3.70
2019-01-10T13:35:28.126Z,3.73
2019-01-10T13:37:57.721Z,3.85
2019-01-10T13:40:28.672Z,3.78
2019-01-10T13:42:57.830Z,3.83
2019-01-10T13:45:29.117Z,3.98
2019-01-10T13:47:58.310Z,4.11
2019-01-10T13:50:32.018Z,4.17
2019-01-10T13:53:01.210Z,4.15
2019-01-10T13:55:30.411Z,4.22
2019-01-10T13:57:59.818Z,4.31
2019-01-10T14:00:35.723Z,4.37
2019-01-10T14:03:04.138Z,4.35
2019-01-10T14:05:33.705Z,4.32
2019-01-10T14:08:02.987Z,4.21
2019-01-10T14:10:32.582Z,4.27
2019-01-10T14:13:01.729Z,4.21
2019-01-10T14:15:35.772Z,4.06
2019-01-10T14:18:05.872Z,4.11
2019-01-10T14:20:36.560Z,4.11
2019-01-10T14:23:05.915Z,4.07
2019-01-10T14:25:35.283Z,3.99
2019-01-10T14:28:04.502Z,3.81
2019-01-10T14:30:39.741Z,3.66
2019-01-10T14:33:11.898Z,3.58
2019-01-10T14:35:41.447Z,3.52
2019-01-10T14:38:11.118Z,3.61
2019-01-10T14:40:40.398Z,3.54
2019-01-10T14:43:09.997Z,3.50
2019-01-10T14:45:40.568Z,3.52
2019-01-10T14:48:11.308Z,3.49
2019-01-10T14:50:41.265Z,3.49
2019-01-10T14:53:10.481Z,3.50
2019-01-10T14:55:39.964Z,3.44
2019-01-10T14:58:09.115Z,3.38
2019-01-10T15:00:38.486Z,3.29
2019-01-10T15:03:07.925Z,3.24
2019-01-10T15:05:37.230Z,3.21
2019-01-10T15:08:06.519Z,3.19
2019-01-10T15:10:36.065Z,3.17
2019-01-10T15:13:05.918Z,3.12
2019-01-10T15:15:35.667Z,3.09
2019-01-10T15:18:06.793Z,3.06
2019-01-10T15:20:36.691Z,3.03
2019-01-10T15:23:05.866Z,3.00
2019-01-10T15:25:35.146Z,3.09
2019-01-10T15:28:04.305Z,3.10
2019-01-10T15:30:33.569Z,3.15
2019-01-10T15:33:03.070Z,3.17
2019-01-10T15:35:32.580Z,3.25
2019-01-10T15:38:02.423Z,3.26
2019-01-10T15:40:33.157Z,3.28
2019-01-10T15:43:03.714Z,3.30
2019-01-10T15:45:33.700Z,3.18
2019-01-10T15:48:03.416Z,2.99
2019-01-10T15:50:33.243Z,2.92
2019-01-10T15:53:03.511Z,2.95
2019-01-10T15:55:33.048Z,2.92
2019-01-10T15:58:02.278Z,2.93
2019-01-10T16:00:31.466Z,2.92
2019-01-10T16:03:01.327Z,2.90
2019-01-10T16:05:30.486Z,2.90
2019-01-10T16:07:59.673Z,2.95
2019-01-10T16:10:29.147Z,3.03
2019-01-10T16:12:58.521Z,3.01
2019-01-10T16:15:27.724Z,3.07
2019-01-10T16:17:56.912Z,3.03
2019-01-10T16:20:26.127Z,3.08
2019-01-10T16:22:55.287Z,3.09
2019-01-10T16:25:24.758Z,3.14
2019-01-10T16:27:54.479Z,3.13
2019-01-10T16:30:31.462Z,3.06
2019-01-10T16:33:01.304Z,3.09
2019-01-10T16:35:30.583Z,3.04
2019-01-10T16:38:00.164Z,3.03
2019-01-10T16:40:29.339Z,2.99
2019-01-10T16:42:58.995Z,3.03
2019-01-10T16:45:33.614Z,3.03
2019-01-10T16:48:03.164Z,2.96
2019-01-10T16:50:34.212Z,3.00
2019-01-10T16:53:03.627Z,2.92
2019-01-10T16:55:34.120Z,3.02
2019-01-10T16:58:05.155Z,2.97
2019-01-10T17:00:35.426Z,2.93
2019-01-10T17:03:05.788Z,2.96
2019-01-10T17:05:35.030Z,2.98
2019-01-10T17:08:04.580Z,2.99
2019-01-10T17:10:34.092Z,3.06
2019-01-10T17:13:03.699Z,3.09
2019-01-10T17:15:32.877Z,3.08
2019-01-10T17:18:02.406Z,2.98
2019-01-10T17:20:31.825Z,2.98
2019-01-10T17:23:01.427Z,3.00
2019-01-10T17:25:30.633Z,2.96
2019-01-10T17:28:00.535Z,3.02
2019-01-10T17:30:31.017Z,2.99
2019-01-10T17:33:00.932Z,3.00
2019-01-10T17:35:32.397Z,2.94
2019-01-10T17:38:02.064Z,2.94
2019-01-10T17:40:31.521Z,2.93
2019-01-10T17:43:00.716Z,2.88
2019-01-10T17:45:32.338Z,2.89
2019-01-10T17:48:01.919Z,2.81
2019-01-10T17:50:31.382Z,2.75
2019-01-10T17:53:00.588Z,2.83
2019-01-10T17:55:30.118Z,2.81
2019-01-10T17:57:59.704Z,2.76
2019-01-10T18:00:30.630Z,2.74
2019-01-10T18:03:00.371Z,2.79
2019-01-10T18:05:29.589Z,2.75
2019-01-10T18:07:59.492Z,2.69
2019-01-10T18:10:28.863Z,2.69
2019-01-10T18:12:58.432Z,2.73
2019-01-10T18:15:28.324Z,2.76
2019-01-10T18:17:57.827Z,2.72
2019-01-10T18:20:32.549Z,2.67
2019-01-10T18:23:01.739Z,2.66
2019-01-10T18:25:30.901Z,2.65
2019-01-10T18:28:00.218Z,2.56
2019-01-10T18:30:29.467Z,2.52
2019-01-10T18:32:58.961Z,2.51
2019-01-10T18:35:28.883Z,2.60
2019-01-10T18:37:59.711Z,2.61
2019-01-10T18:40:29.601Z,2.65
2019-01-10T18:42:59.545Z,2.59
2019-01-10T18:45:31.235Z,2.51
2019-01-10T18:48:00.780Z,2.46
2019-01-10T18:50:30.364Z,2.48
2019-01-10T18:53:00.289Z,2.43
2019-01-10T18:55:29.497Z,2.41
2019-01-10T18:57:58.764Z,2.38
2019-01-10T19:00:29.633Z,2.43
2019-01-10T19:03:00.013Z,2.40
2019-01-10T19:05:30.495Z,2.40
2019-01-10T19:08:00.094Z,2.43
2019-01-10T19:10:29.299Z,2.36
2019-01-10T19:12:58.541Z,2.37
2019-01-10T19:15:28.047Z,2.31
2019-01-10T19:18:03.154Z,2.31
2019-01-10T19:20:29.333Z,2.32
2019-01-10T19:23:02.586Z,2.32
2019-01-10T19:25:32.076Z,2.29
2019-01-10T19:28:01.485Z,2.29
2019-01-10T19:30:36.259Z,2.20
2019-01-10T19:33:06.409Z,2.17
2019-01-10T19:35:35.880Z,2.18
2019-01-10T19:38:05.736Z,2.13
2019-01-10T19:40:34.909Z,2.05
2019-01-10T19:43:04.827Z,2.08
2019-01-10T19:45:34.010Z,2.11
2019-01-10T19:48:09.700Z,2.15
2019-01-10T19:50:36.017Z,2.12
2019-01-10T19:53:05.345Z,2.12
2019-01-10T19:55:34.556Z,2.17
2019-01-10T19:58:04.188Z,2.14
2019-01-10T20:00:36.702Z,2.24
2019-01-10T20:03:06.584Z,2.15
2019-01-10T20:05:35.937Z,2.11
2019-01-10T20:08:05.804Z,2.18
2019-01-10T20:10:35.427Z,2.07
2019-01-10T20:13:04.702Z,2.07
2019-01-10T20:15:33.909Z,2.13
2019-01-10T20:18:03.125Z,2.12
2019-01-10T20:20:35.652Z,2.13
2019-01-10T20:23:07.018Z,2.16
2019-01-10T20:25:37.847Z,2.15
2019-01-10T20:28:07.195Z,2.16
2019-01-10T20:30:37.062Z,2.13
2019-01-10T20:33:06.585Z,2.12
2019-01-10T20:35:36.034Z,2.14
2019-01-10T20:38:05.968Z,2.09
2019-01-10T20:40:36.556Z,2.18
2019-01-10T20:43:06.283Z,2.20
2019-01-10T20:45:36.193Z,2.21
2019-01-10T20:48:06.232Z,2.16
2019-01-10T20:50:35.497Z,2.12
2019-01-10T20:53:05.802Z,2.12
2019-01-10T20:55:36.227Z,2.14
2019-01-10T20:58:06.019Z,2.15
2019-01-10T21:00:35.970Z,2.39
2019-01-10T21:03:05.692Z,2.36
2019-01-10T21:05:34.899Z,2.37
2019-01-10T21:08:04.054Z,2.32
2019-01-10T21:10:33.694Z,2.41
2019-01-10T21:13:03.050Z,2.38
2019-01-10T21:15:32.577Z,2.43
2019-01-10T21:18:01.770Z,2.44
2019-01-10T21:20:30.942Z,2.39
2019-01-10T21:23:00.640Z,2.32
2019-01-10T21:25:29.856Z,2.32
2019-01-10T21:28:00.703Z,2.30
2019-01-10T21:30:29.911Z,2.24
2019-01-10T21:32:59.124Z,2.25
2019-01-10T21:35:28.767Z,2.22
2019-01-10T21:37:57.980Z,2.21
2019-01-10T21:40:28.665Z,2.18
2019-01-10T21:42:58.546Z,2.16
2019-01-10T21:45:28.327Z,2.18
2019-01-10T21:47:59.297Z,2.15
2019-01-10T21:50:28.501Z,2.16
2019-01-10T21:52:57.744Z,2.11
2019-01-10T21:55:26.898Z,2.14
2019-01-10T21:57:56.157Z,2.15
2019-01-10T22:00:27.977Z,2.14
2019-01-10T22:02:57.757Z,2.17
2019-01-10T22:05:26.919Z,2.15
2019-01-10T22:07:56.094Z,2.16
2019-01-10T22:10:25.598Z,2.13
2019-01-10T22:12:55.280Z,2.11
2019-01-10T22:15:25.063Z,2.12
2019-01-10T22:17:54.646Z,2.13
2019-01-10T22:20:24.764Z,2.15
2019-01-10T22:22:53.994Z,2.11
2019-01-10T22:25:23.262Z,2.19
2019-01-10T22:27:52.871Z,2.14
2019-01-10T22:30:23.244Z,2.19
2019-01-10T22:32:52.402Z,2.17
2019-01-10T22:35:23.189Z,2.20
2019-01-10T22:37:54.201Z,2.19
2019-01-10T22:40:24.766Z,2.20
2019-01-10T22:42:54.358Z,2.17
2019-01-10T22:45:23.904Z,2.20
2019-01-10T22:47:53.989Z,2.22
2019-01-10T22:50:24.929Z,2.19
2019-01-10T22:52:54.612Z,2.24
2019-01-10T22:55:25.733Z,2.24
2019-01-10T22:57:55.269Z,2.29
2019-01-10T23:01:21.726Z,2.24
2019-01-10T23:03:51.023Z,2.20
2019-01-10T23:06:20.205Z,2.16
2019-01-10T23:08:50.873Z,2.22
2019-01-10T23:11:23.949Z,2.22
2019-01-10T23:14:00.563Z,2.22
2019-01-10T23:16:30.762Z,2.25
2019-01-10T23:18:59.962Z,2.29
2019-01-10T23:21:31.193Z,2.26
2019-01-10T23:24:26.717Z,2.28
2019-01-10T23:26:57.018Z,2.23
2019-01-10T23:29:33.076Z,2.29
2019-01-10T23:32:10.895Z,2.30
2019-01-10T23:34:47.019Z,2.28
2019-01-10T23:37:24.734Z,2.35
2019-01-10T23:39:55.260Z,2.29
2019-01-10T23:42:24.751Z,2.30
2019-01-10T23:44:53.960Z,2.27
2019-01-10T23:47:23.183Z,2.33
2019-01-10T23:49:52.322Z,2.34
2019-01-10T23:52:21.612Z,2.36
2019-01-10T23:54:51.486Z,2.31
2019-01-10T23:57:21.015Z,2.35
2019-01-10T23:59:50.212Z,2.33
